createdAt,value
2023-05-25T00:00:19.396Z,7.92
2023-05-25T00:02:49.432Z,7.91
2023-05-25T00:05:20.388Z,7.82
2023-05-25T00:07:52.483Z,7.80
2023-05-25T00:10:22.008Z,7.77
2023-05-25T00:12:51.508Z,7.78
2023-05-25T00:15:21.573Z,7.92
2023-05-25T00:17:54.778Z,7.87
2023-05-25T00:20:24.445Z,7.80
2023-05-25T00:22:56.629Z,7.78
2023-05-25T00:25:26.177Z,7.76
2023-05-25T00:27:55.759Z,7.78
2023-05-25T00:30:25.398Z,7.80
2023-05-25T00:32:55.832Z,7.77
2023-05-25T00:35:25.362Z,7.65
2023-05-25T00:37:57.470Z,7.62
2023-05-25T00:40:27.132Z,7.60
2023-05-25T00:42:56.666Z,7.66
2023-05-25T00:45:26.244Z,7.66
2023-05-25T00:47:56.145Z,7.63
2023-05-25T00:50:36.937Z,7.59
2023-05-25T00:53:09.813Z,7.63
2023-05-25T00:55:42.417Z,7.69
2023-05-25T00:58:12.954Z,7.64
2023-05-25T01:00:44.308Z,7.62
2023-05-25T01:03:18.097Z,7.68
2023-05-25T01:05:51.442Z,7.58
2023-05-25T01:08:25.804Z,7.57
2023-05-25T01:10:56.249Z,7.42
2023-05-25T01:13:25.996Z,7.50
2023-05-25T01:15:55.940Z,7.51
2023-05-25T01:18:25.561Z,7.48
2023-05-25T01:21:02.154Z,7.55
2023-05-25T01:23:35.889Z,7.54
2023-05-25T01:26:09.014Z,7.44
2023-05-25T01:28:41.724Z,7.50
2023-05-25T01:31:11.867Z,7.56
2023-05-25T01:33:41.567Z,7.54
2023-05-25T01:36:13.850Z,7.48
2023-05-25T01:38:43.460Z,7.50
2023-05-25T01:41:13.043Z,7.53
2023-05-25T01:43:42.772Z,7.54
2023-05-25T01:46:17.627Z,7.50
2023-05-25T01:48:56.121Z,7.48
2023-05-25T01:51:35.177Z,7.33
2023-05-25T01:54:10.787Z,7.38
2023-05-25T01:56:42.862Z,7.38
2023-05-25T01:59:12.884Z,7.39
2023-05-25T02:01:44.100Z,7.37
2023-05-25T02:04:14.514Z,7.50
2023-05-25T02:06:46.683Z,7.46
2023-05-25T02:09:16.466Z,7.39
2023-05-25T02:11:46.256Z,7.37
2023-05-25T02:14:16.146Z,7.33
2023-05-25T02:16:47.464Z,7.29
2023-05-25T02:19:17.013Z,7.24
2023-05-25T02:21:49.213Z,7.32
2023-05-25T02:24:18.910Z,7.35
2023-05-25T02:26:48.508Z,7.33
2023-05-25T02:29:18.089Z,7.26
2023-05-25T02:31:47.684Z,7.31
2023-05-25T02:34:17.335Z,7.25
2023-05-25T02:36:49.426Z,7.25
2023-05-25T02:39:19.169Z,7.37
2023-05-25T02:41:48.778Z,7.37
2023-05-25T02:44:18.345Z,7.81
2023-05-25T02:46:47.939Z,8.00
2023-05-25T02:49:17.567Z,7.96
2023-05-25T02:51:49.721Z,8.11
2023-05-25T02:54:19.985Z,8.40
2023-05-25T02:56:49.522Z,7.91
2023-05-25T02:59:19.097Z,7.68
2023-05-25T03:01:48.609Z,7.55
2023-05-25T03:04:18.217Z,7.43
2023-05-25T03:06:50.566Z,7.70
2023-05-25T03:09:20.198Z,7.72
2023-05-25T03:11:49.845Z,7.68
2023-05-25T03:14:19.398Z,7.70
2023-05-25T03:16:49.912Z,7.58
2023-05-25T03:19:20.702Z,7.67
2023-05-25T03:21:52.846Z,7.63
2023-05-25T03:24:22.373Z,7.64
2023-05-25T03:26:51.886Z,7.64
2023-05-25T03:29:21.850Z,7.69
2023-05-25T03:31:51.441Z,7.73
2023-05-25T03:34:21.017Z,7.84
2023-05-25T03:36:54.521Z,7.83
2023-05-25T03:39:24.909Z,7.90
2023-05-25T03:41:55.542Z,7.96
2023-05-25T03:44:25.146Z,7.93
2023-05-25T03:46:54.650Z,7.80
2023-05-25T03:49:24.184Z,7.76
2023-05-25T03:51:56.369Z,7.81
2023-05-25T03:54:26.053Z,7.82
2023-05-25T03:56:56.921Z,7.77
2023-05-25T03:59:26.418Z,7.77
2023-05-25T04:01:55.936Z,7.74
2023-05-25T04:04:26.068Z,7.75
2023-05-25T04:06:58.244Z,7.74
2023-05-25T04:09:27.818Z,7.77
2023-05-25T04:14:58.471Z,7.73
2023-05-25T04:17:26.739Z,7.80
2023-05-25T04:19:55.142Z,7.86
2023-05-25T04:22:23.440Z,7.84
2023-05-25T04:24:51.679Z,7.87
2023-05-25T04:27:20.356Z,7.95
2023-05-25T04:29:50.202Z,7.94
2023-05-25T04:32:22.530Z,8.00
2023-05-25T04:34:52.452Z,8.06
2023-05-25T04:37:21.958Z,8.08
2023-05-25T04:39:51.590Z,8.12
2023-05-25T04:42:24.165Z,8.13
2023-05-25T04:44:55.814Z,8.08
2023-05-25T04:47:28.100Z,8.11
2023-05-25T04:49:57.717Z,8.11
2023-05-25T04:52:27.328Z,8.17
2023-05-25T04:54:56.833Z,8.28
2023-05-25T04:57:28.282Z,8.30
2023-05-25T04:59:57.831Z,8.32
2023-05-25T05:02:30.032Z,8.38
2023-05-25T05:04:59.668Z,8.45
2023-05-25T05:07:29.233Z,8.47
2023-05-25T05:09:59.014Z,8.49
2023-05-25T05:12:28.525Z,8.60
2023-05-25T05:14:58.782Z,8.66
2023-05-25T05:17:31.293Z,8.64
2023-05-25T05:20:01.035Z,8.59
2023-05-25T05:22:30.951Z,8.65
2023-05-25T05:25:00.577Z,8.68
2023-05-25T05:27:30.141Z,9.13
2023-05-25T05:29:59.675Z,9.40
2023-05-25T05:32:32.130Z,9.32
2023-05-25T05:35:01.756Z,9.30
2023-05-25T05:37:31.362Z,9.37
2023-05-25T05:40:00.904Z,9.45
2023-05-25T05:42:30.565Z,9.32
2023-05-25T05:45:00.136Z,9.31
2023-05-25T05:47:32.311Z,9.34
2023-05-25T05:50:01.869Z,9.27
2023-05-25T05:52:31.481Z,9.42
2023-05-25T05:55:01.108Z,9.44
2023-05-25T05:57:30.970Z,9.35
2023-05-25T06:00:00.628Z,9.37
2023-05-25T06:02:33.541Z,9.32
2023-05-25T06:05:03.135Z,9.41
2023-05-25T06:07:35.261Z,9.50
2023-05-25T06:10:05.130Z,9.63
2023-05-25T06:12:34.925Z,9.68
2023-05-25T06:15:04.921Z,9.76
2023-05-25T06:17:37.309Z,9.79
2023-05-25T06:20:07.858Z,9.84
2023-05-25T06:22:37.491Z,10.07
2023-05-25T06:25:10.550Z,10.13
2023-05-25T06:27:40.262Z,10.24
2023-05-25T06:30:11.489Z,10.39
2023-05-25T06:32:43.812Z,10.46
2023-05-25T06:35:19.778Z,10.26
2023-05-25T06:37:51.045Z,10.47
2023-05-25T06:40:20.720Z,10.46
2023-05-25T06:42:50.371Z,10.58
2023-05-25T06:45:19.962Z,10.75
2023-05-25T06:47:52.133Z,10.81
2023-05-25T06:50:22.060Z,10.96
2023-05-25T06:52:51.735Z,11.08
2023-05-25T06:55:21.304Z,10.94
2023-05-25T06:57:50.890Z,10.89
2023-05-25T07:00:21.638Z,10.55
2023-05-25T07:02:54.030Z,10.77
2023-05-25T07:05:27.034Z,10.78
2023-05-25T07:07:56.688Z,10.86
2023-05-25T07:10:26.916Z,10.97
2023-05-25T07:12:56.588Z,11.01
2023-05-25T07:15:26.189Z,11.17
2023-05-25T07:17:59.043Z,11.42
2023-05-25T07:20:30.394Z,11.47
2023-05-25T07:23:00.168Z,11.59
2023-05-25T07:25:30.313Z,11.79
2023-05-25T07:28:00.119Z,11.82
2023-05-25T07:30:29.714Z,11.65
2023-05-25T07:33:02.255Z,11.85
2023-05-25T07:35:31.865Z,11.83
2023-05-25T07:38:01.592Z,11.97
2023-05-25T07:40:31.475Z,12.18
2023-05-25T07:43:01.286Z,12.45
2023-05-25T07:45:30.901Z,12.66
2023-05-25T07:48:03.360Z,12.28
2023-05-25T07:50:33.033Z,11.88
2023-05-25T07:53:02.599Z,11.68
2023-05-25T07:55:32.519Z,11.75
2023-05-25T07:58:02.106Z,12.02
2023-05-25T08:00:31.812Z,12.30
2023-05-25T08:03:05.117Z,12.34
2023-05-25T08:05:34.880Z,12.51
2023-05-25T08:08:04.428Z,12.55
2023-05-25T08:10:34.105Z,12.57
2023-05-25T08:13:03.707Z,12.36
2023-05-25T08:15:33.341Z,12.33
2023-05-25T08:18:06.762Z,12.63
2023-05-25T08:20:36.788Z,12.60
2023-05-25T08:23:06.485Z,12.57
2023-05-25T08:25:36.062Z,12.89
2023-05-25T08:28:05.678Z,13.06
2023-05-25T08:30:35.467Z,13.09
2023-05-25T08:33:08.165Z,12.83
2023-05-25T08:35:39.475Z,12.60
2023-05-25T08:38:09.103Z,12.70
2023-05-25T08:40:38.717Z,12.77
2023-05-25T08:43:08.593Z,12.99
2023-05-25T08:45:41.753Z,13.12
2023-05-25T08:48:35.724Z,13.20
2023-05-25T08:51:11.020Z,13.26
2023-05-25T08:53:42.576Z,13.47
2023-05-25T08:56:15.526Z,13.73
2023-05-25T08:58:50.835Z,13.61
2023-05-25T09:01:23.263Z,13.46
2023-05-25T09:03:55.797Z,13.63
2023-05-25T09:06:27.119Z,13.84
2023-05-25T09:08:57.585Z,14.09
2023-05-25T09:11:37.430Z,13.97
2023-05-25T09:14:10.712Z,14.20
2023-05-25T09:16:41.227Z,14.14
2023-05-25T09:19:13.832Z,14.11
2023-05-25T09:21:44.259Z,14.24
2023-05-25T09:24:14.254Z,14.57
2023-05-25T09:26:46.455Z,14.50
2023-05-25T09:29:17.822Z,14.15
2023-05-25T09:31:47.421Z,13.89
2023-05-25T09:34:19.616Z,13.98
2023-05-25T09:36:49.482Z,14.11
2023-05-25T09:39:19.899Z,14.33
2023-05-25T09:41:49.547Z,14.48
2023-05-25T09:44:19.101Z,14.20
2023-05-25T09:46:48.991Z,14.50
2023-05-25T09:49:21.253Z,14.87
2023-05-25T09:51:51.072Z,14.67
2023-05-25T09:54:22.887Z,14.86
2023-05-25T09:56:52.659Z,15.10
2023-05-25T09:59:22.252Z,15.11
2023-05-25T10:01:54.013Z,15.03
2023-05-25T10:04:26.338Z,15.29
2023-05-25T10:06:56.947Z,15.15
2023-05-25T10:09:28.365Z,14.81
2023-05-25T10:11:59.993Z,14.98
2023-05-25T10:14:31.244Z,15.08
2023-05-25T10:17:02.250Z,15.10
2023-05-25T10:19:37.984Z,15.37
2023-05-25T10:22:13.675Z,15.63
2023-05-25T10:24:46.787Z,15.64
2023-05-25T10:27:26.857Z,15.48
2023-05-25T10:29:59.111Z,15.43
2023-05-25T10:32:29.296Z,15.56
2023-05-25T10:35:02.237Z,15.79
2023-05-25T10:37:32.498Z,15.86
2023-05-25T10:40:03.388Z,15.95
2023-05-25T10:42:34.611Z,15.93
2023-05-25T10:45:04.369Z,15.93
2023-05-25T10:47:34.976Z,15.55
2023-05-25T10:50:07.818Z,15.77
2023-05-25T10:52:37.506Z,15.83
2023-05-25T10:55:07.761Z,15.81
2023-05-25T10:57:39.880Z,15.67
2023-05-25T11:00:11.559Z,15.82
2023-05-25T11:02:55.703Z,15.76
2023-05-25T11:05:39.875Z,15.96
2023-05-25T11:08:12.533Z,16.22
2023-05-25T11:10:55.809Z,16.36
2023-05-25T11:13:41.453Z,16.41
2023-05-25T11:16:24.941Z,16.62
2023-05-25T11:18:58.789Z,16.30
2023-05-25T11:21:49.463Z,16.37
2023-05-25T11:24:20.930Z,16.54
2023-05-25T11:26:58.622Z,16.63
2023-05-25T11:29:29.396Z,16.85
2023-05-25T11:32:00.820Z,16.74
2023-05-25T11:34:30.621Z,16.60
2023-05-25T11:37:04.657Z,16.60
2023-05-25T11:39:34.374Z,16.56
2023-05-25T11:42:08.234Z,16.65
2023-05-25T11:44:39.321Z,16.81
2023-05-25T11:47:13.505Z,17.02
2023-05-25T11:49:46.348Z,16.93
2023-05-25T11:52:19.564Z,17.26
2023-05-25T11:54:49.779Z,17.17
2023-05-25T11:57:21.605Z,17.23
2023-05-25T11:59:52.693Z,17.37
2023-05-25T12:02:22.935Z,17.20
2023-05-25T12:04:57.225Z,17.63
2023-05-25T12:07:30.785Z,16.99
2023-05-25T12:10:12.412Z,17.14
2023-05-25T12:12:45.077Z,17.21
2023-05-25T12:15:19.005Z,17.04
2023-05-25T12:17:50.616Z,17.33
2023-05-25T12:20:21.280Z,17.64
2023-05-25T12:22:53.807Z,17.87
2023-05-25T12:25:24.642Z,18.31
2023-05-25T12:28:15.456Z,18.59
2023-05-25T12:30:45.948Z,18.89
2023-05-25T12:33:16.431Z,18.48
2023-05-25T12:35:49.901Z,18.02
2023-05-25T12:38:23.819Z,18.57
2023-05-25T12:41:08.158Z,19.31
2023-05-25T12:43:43.826Z,19.63
2023-05-25T12:46:13.511Z,19.76
2023-05-25T12:48:43.171Z,19.76
2023-05-25T12:51:12.803Z,19.38
2023-05-25T12:53:55.080Z,19.25
2023-05-25T12:56:24.648Z,19.94
2023-05-25T12:58:54.211Z,19.40
2023-05-25T13:01:24.189Z,19.45
2023-05-25T13:03:54.034Z,19.56
2023-05-25T13:06:23.628Z,20.34
2023-05-25T13:08:55.989Z,20.09
2023-05-25T13:11:26.086Z,19.48
2023-05-25T13:13:55.699Z,19.27
2023-05-25T13:16:25.824Z,19.72
2023-05-25T13:18:55.641Z,19.74
2023-05-25T13:21:25.206Z,20.32
2023-05-25T13:23:57.747Z,20.58
2023-05-25T13:26:27.601Z,20.48
2023-05-25T13:28:57.132Z,20.84
2023-05-25T13:31:26.717Z,21.05
2023-05-25T13:33:56.561Z,20.56
2023-05-25T13:36:26.106Z,20.76
2023-05-25T13:38:59.321Z,20.87
2023-05-25T13:41:28.858Z,20.83
2023-05-25T13:43:58.415Z,21.08
2023-05-25T13:46:34.714Z,20.86
2023-05-25T13:49:05.145Z,20.86
2023-05-25T13:51:35.878Z,21.61
2023-05-25T13:54:08.298Z,21.84
2023-05-25T13:56:37.857Z,21.38
2023-05-25T13:59:07.447Z,21.65
2023-05-25T14:01:37.127Z,20.96
2023-05-25T14:04:06.807Z,20.87
2023-05-25T14:06:36.842Z,20.67
2023-05-25T14:09:09.973Z,20.83
2023-05-25T14:11:39.990Z,20.99
2023-05-25T14:14:19.442Z,21.17
2023-05-25T14:16:56.879Z,21.22
2023-05-25T14:19:26.434Z,20.83
2023-05-25T14:22:11.900Z,20.67
2023-05-25T14:24:45.808Z,20.37
2023-05-25T14:27:16.231Z,20.74
2023-05-25T14:29:45.798Z,20.35
2023-05-25T14:32:15.831Z,20.46
2023-05-25T14:34:45.423Z,20.61
2023-05-25T14:37:15.202Z,20.98
2023-05-25T14:39:47.406Z,20.39
2023-05-25T14:42:17.164Z,20.15
2023-05-25T14:44:46.742Z,19.86
2023-05-25T14:47:16.780Z,20.26
2023-05-25T14:49:46.429Z,20.06
2023-05-25T14:52:15.948Z,19.74
2023-05-25T14:54:48.373Z,19.77
2023-05-25T14:57:18.495Z,20.15
2023-05-25T14:59:48.040Z,19.91
2023-05-25T15:02:17.720Z,19.68
2023-05-25T15:04:47.797Z,19.64
2023-05-25T15:07:17.423Z,19.66
2023-05-25T15:09:49.603Z,19.19
2023-05-25T15:12:19.291Z,19.11
2023-05-25T15:14:48.829Z,18.94
2023-05-25T15:17:18.412Z,18.82
2023-05-25T15:19:47.982Z,18.75
2023-05-25T15:22:21.614Z,18.74
2023-05-25T15:24:53.783Z,18.89
2023-05-25T15:27:23.524Z,18.81
2023-05-25T15:29:53.202Z,18.73
2023-05-25T15:32:22.734Z,18.79
2023-05-25T15:34:52.232Z,18.72
2023-05-25T15:37:21.781Z,18.79
2023-05-25T15:39:54.023Z,18.58
2023-05-25T15:42:24.236Z,18.49
2023-05-25T15:44:53.750Z,18.25
2023-05-25T15:47:23.286Z,18.12
2023-05-25T15:49:52.902Z,17.99
2023-05-25T15:52:22.455Z,18.12
2023-05-25T15:54:54.629Z,18.29
2023-05-25T15:57:24.398Z,18.40
2023-05-25T15:59:54.360Z,18.47
2023-05-25T16:02:23.981Z,18.69
2023-05-25T16:04:53.497Z,18.68
2023-05-25T16:07:23.000Z,18.66
2023-05-25T16:09:55.151Z,18.68
2023-05-25T16:12:26.329Z,18.69
2023-05-25T16:14:56.045Z,18.69
2023-05-25T16:17:25.615Z,18.73
2023-05-25T16:19:55.192Z,18.81
2023-05-25T16:22:24.809Z,18.75
2023-05-25T16:24:57.249Z,18.62
2023-05-25T16:27:26.971Z,18.33
2023-05-25T16:29:56.679Z,18.21
2023-05-25T16:32:27.405Z,18.25
2023-05-25T16:34:56.926Z,18.30
2023-05-25T16:37:26.553Z,17.94
2023-05-25T16:39:58.681Z,18.32
2023-05-25T16:42:28.234Z,18.54
2023-05-25T16:44:57.836Z,18.16
2023-05-25T16:47:27.589Z,18.06
2023-05-25T16:49:57.106Z,18.22
2023-05-25T16:52:26.727Z,18.63
2023-05-25T16:54:59.368Z,18.34
2023-05-25T16:57:28.935Z,18.88
2023-05-25T16:59:58.453Z,18.89
2023-05-25T17:02:28.106Z,18.66
2023-05-25T17:04:57.821Z,18.12
2023-05-25T17:07:27.348Z,17.86
2023-05-25T17:09:59.502Z,18.28
2023-05-25T17:12:29.219Z,18.51
2023-05-25T17:14:59.056Z,18.84
2023-05-25T17:17:29.088Z,18.96
2023-05-25T17:19:59.014Z,18.58
2023-05-25T17:22:28.626Z,18.81
2023-05-25T17:25:01.096Z,19.09
2023-05-25T17:27:31.230Z,19.20
2023-05-25T17:30:00.752Z,18.98
2023-05-25T17:32:30.300Z,18.25
2023-05-25T17:34:59.839Z,18.09
2023-05-25T17:37:29.595Z,17.97
2023-05-25T17:40:01.693Z,17.59
2023-05-25T17:42:31.267Z,17.60
2023-05-25T17:45:00.847Z,17.23
2023-05-25T17:47:30.834Z,17.18
2023-05-25T17:50:00.450Z,17.23
2023-05-25T17:52:31.594Z,17.07
2023-05-25T17:55:03.721Z,16.88
2023-05-25T17:57:33.210Z,16.83
2023-05-25T18:00:03.022Z,16.66
2023-05-25T18:02:34.200Z,16.72
2023-05-25T18:05:03.993Z,16.57
2023-05-25T18:07:33.534Z,16.39
2023-05-25T18:10:05.772Z,16.41
2023-05-25T18:12:35.449Z,16.36
2023-05-25T18:15:05.017Z,16.19
2023-05-25T18:17:34.558Z,16.09
2023-05-25T18:20:04.381Z,16.04
2023-05-25T18:22:33.907Z,15.88
2023-05-25T18:25:06.334Z,15.76
2023-05-25T18:27:36.166Z,15.77
2023-05-25T18:30:05.936Z,15.56
2023-05-25T18:32:35.560Z,15.45
2023-05-25T18:35:05.251Z,15.40
2023-05-25T18:37:35.974Z,15.31
2023-05-25T18:40:11.858Z,15.24
2023-05-25T18:42:41.528Z,15.17
2023-05-25T18:45:14.669Z,15.16
2023-05-25T18:47:44.391Z,14.93
2023-05-25T18:50:14.444Z,14.88
2023-05-25T18:52:44.173Z,14.78
2023-05-25T18:55:16.325Z,14.77
2023-05-25T18:57:45.917Z,14.69
2023-05-25T19:00:16.972Z,14.63
2023-05-25T19:02:46.651Z,14.51
2023-05-25T19:05:16.679Z,14.43
2023-05-25T19:07:58.303Z,14.34
2023-05-25T19:10:31.748Z,14.17
2023-05-25T19:13:01.408Z,14.08
2023-05-25T19:15:31.006Z,13.87
2023-05-25T19:18:03.583Z,13.81
2023-05-25T19:20:35.715Z,13.71
2023-05-25T19:23:05.634Z,13.60
2023-05-25T19:25:37.779Z,13.53
2023-05-25T19:28:07.496Z,13.40
2023-05-25T19:30:39.443Z,13.28
2023-05-25T19:33:09.348Z,13.15
2023-05-25T19:35:39.154Z,13.09
2023-05-25T19:38:08.921Z,12.99
2023-05-25T19:40:41.151Z,13.02
2023-05-25T19:43:10.664Z,12.92
2023-05-25T19:45:40.272Z,12.81
2023-05-25T19:48:09.948Z,12.80
2023-05-25T19:50:39.471Z,12.71
2023-05-25T19:53:09.632Z,12.62
2023-05-25T19:55:41.897Z,12.54
2023-05-25T19:58:11.502Z,12.47
2023-05-25T20:00:41.034Z,12.45
2023-05-25T20:03:10.779Z,12.29
2023-05-25T20:05:41.030Z,12.24
2023-05-25T20:08:10.971Z,12.12
2023-05-25T20:10:46.144Z,12.02
2023-05-25T20:13:15.957Z,11.99
2023-05-25T20:15:46.081Z,11.93
2023-05-25T20:18:15.875Z,11.98
2023-05-25T20:20:45.656Z,11.78
2023-05-25T20:23:15.304Z,11.69
2023-05-25T20:25:47.610Z,11.72
2023-05-25T20:28:17.228Z,11.65
2023-05-25T20:30:46.779Z,11.80
2023-05-25T20:33:17.829Z,11.69
2023-05-25T20:35:47.596Z,11.56
2023-05-25T20:38:17.328Z,11.48
2023-05-25T20:40:49.452Z,11.41
2023-05-25T20:43:19.057Z,11.43
2023-05-25T20:45:48.904Z,11.23
2023-05-25T20:48:18.649Z,11.10
2023-05-25T20:50:48.209Z,11.01
2023-05-25T20:53:19.500Z,11.07
2023-05-25T20:55:51.643Z,11.06
2023-05-25T20:58:21.401Z,10.92
2023-05-25T21:00:51.314Z,10.86
2023-05-25T21:03:21.346Z,10.82
2023-05-25T21:05:51.082Z,11.00
2023-05-25T21:08:20.798Z,10.88
2023-05-25T21:10:52.937Z,10.78
2023-05-25T21:13:22.562Z,10.62
2023-05-25T21:15:52.148Z,10.63
2023-05-25T21:18:21.717Z,10.59
2023-05-25T21:20:51.690Z,10.36
2023-05-25T21:23:21.349Z,10.40
2023-05-25T21:25:53.623Z,10.34
2023-05-25T21:28:23.435Z,10.18
2023-05-25T21:30:53.278Z,10.21
2023-05-25T21:33:22.865Z,10.23
2023-05-25T21:35:52.401Z,10.19
2023-05-25T21:38:21.896Z,10.18
2023-05-25T21:40:54.323Z,10.14
2023-05-25T21:43:23.875Z,10.08
2023-05-25T21:45:53.489Z,10.05
2023-05-25T21:48:23.068Z,9.82
2023-05-25T21:50:53.717Z,9.92
2023-05-25T21:53:23.866Z,9.77
2023-05-25T21:55:55.985Z,9.73
2023-05-25T21:58:25.774Z,9.73
2023-05-25T22:00:55.623Z,9.65
2023-05-25T22:03:25.188Z,9.73
2023-05-25T22:05:54.757Z,9.64
2023-05-25T22:08:24.859Z,9.61
2023-05-25T22:10:56.993Z,9.65
2023-05-25T22:13:26.824Z,9.51
2023-05-25T22:15:56.440Z,9.46
2023-05-25T22:18:26.019Z,9.37
2023-05-25T22:20:55.649Z,9.36
2023-05-25T22:23:25.307Z,9.36
2023-05-25T22:25:57.508Z,9.41
2023-05-25T22:28:27.011Z,9.35
2023-05-25T22:30:56.589Z,9.38
2023-05-25T22:33:26.473Z,9.21
2023-05-25T22:35:56.034Z,9.25
2023-05-25T22:38:25.608Z,9.08
2023-05-25T22:40:57.770Z,9.11
2023-05-25T22:43:27.357Z,9.11
2023-05-25T22:45:58.200Z,8.99
2023-05-25T22:48:28.531Z,8.80
2023-05-25T22:50:58.100Z,8.73
2023-05-25T22:53:27.659Z,8.66
2023-05-25T22:55:59.867Z,8.59
2023-05-25T22:58:29.439Z,8.54
2023-05-25T23:00:59.129Z,8.40
2023-05-25T23:03:28.851Z,8.45
2023-05-25T23:05:58.447Z,8.45
2023-05-25T23:08:27.978Z,8.44
2023-05-25T23:11:00.191Z,8.42
2023-05-25T23:13:29.716Z,8.31
2023-05-25T23:15:59.738Z,8.17
2023-05-25T23:18:29.323Z,8.24
2023-05-25T23:20:58.874Z,8.15
2023-05-25T23:23:28.472Z,8.17
2023-05-25T23:26:00.567Z,8.06
2023-05-25T23:28:30.125Z,8.02
2023-05-25T23:30:59.718Z,7.92
2023-05-25T23:33:29.407Z,7.99
2023-05-25T23:35:59.301Z,8.05
2023-05-25T23:38:28.838Z,7.85
2023-05-25T23:41:01.032Z,7.74
2023-05-25T23:43:30.586Z,7.84
2023-05-25T23:46:00.238Z,7.75
2023-05-25T23:48:29.790Z,7.56
2023-05-25T23:50:59.294Z,7.62
2023-05-25T23:53:28.857Z,7.45
2023-05-25T23:56:00.977Z,7.43
2023-05-25T23:58:30.537Z,7.36
